Ashland, Wisconsin
Current Conditions -  °F | °C
As of 3:53 AM on Saturday 29 Nov 2014 (Local Time) from KASX Reporting Station
Few Clouds Few Clouds  
Wind Chill: 11°   Ceiling: Unl
Heat Index: 18°   Visibility: 10mi
Dew Point: 15°   Wind: 5mph
Humidity: 88%   Direction: 150°SSE
Pressure: 29.63"   Gusts: NA
Location:  46.59°N, 90.89°W
Report Text: KASX 290953Z AUTO 15004KT 10SM FEW110 M08/M09 A2963 RMK AO2 SLP049 T10781094
Loading
Personal Weather Stations






























Interactive Weather Map New forecast layout! Learn more

10-Day Weather Forecast

Advertisements
Track Severe Weather on mobile